sensor_id;sensor_type;location;lat;lon;timestamp;P1;durP1;ratioP1;P2;durP2;ratioP2
11453;SDS011;5783;55.174;61.310;2022-11-15T00:01:39;1.37;;;1.23;;
11453;SDS011;5783;55.174;61.310;2022-11-15T00:04:08;1.33;;;1.23;;
11453;SDS011;5783;55.174;61.310;2022-11-15T00:06:38;1.87;;;1.60;;
11453;SDS011;5783;55.174;61.310;2022-11-15T00:09:07;1.60;;;1.40;;
11453;SDS011;5783;55.174;61.310;2022-11-15T00:11:36;1.40;;;1.30;;
11453;SDS011;5783;55.174;61.310;2022-11-15T00:14:05;1.20;;;1.10;;
11453;SDS011;5783;55.174;61.310;2022-11-15T00:16:35;2.37;;;1.20;;
11453;SDS011;5783;55.174;61.310;2022-11-15T00:19:04;1.50;;;1.40;;
11453;SDS011;5783;55.174;61.310;2022-11-15T00:21:33;1.40;;;1.30;;
11453;SDS011;5783;55.174;61.310;2022-11-15T00:24:02;2.73;;;1.60;;
11453;SDS011;5783;55.174;61.310;2022-11-15T00:26:31;1.50;;;1.40;;
11453;SDS011;5783;55.174;61.310;2022-11-15T00:29:00;1.20;;;1.10;;
11453;SDS011;5783;55.174;61.310;2022-11-15T00:31:29;1.30;;;1.20;;
11453;SDS011;5783;55.174;61.310;2022-11-15T00:33:59;1.50;;;1.40;;
11453;SDS011;5783;55.174;61.310;2022-11-15T00:36:28;1.60;;;1.30;;
11453;SDS011;5783;55.174;61.310;2022-11-15T00:38:58;1.50;;;1.40;;
11453;SDS011;5783;55.174;61.310;2022-11-15T00:41:27;1.47;;;1.37;;
11453;SDS011;5783;55.174;61.310;2022-11-15T00:43:57;1.17;;;1.13;;
11453;SDS011;5783;55.174;61.310;2022-11-15T00:46:26;1.50;;;1.37;;
11453;SDS011;5783;55.174;61.310;2022-11-15T00:48:55;1.53;;;1.40;;
11453;SDS011;5783;55.174;61.310;2022-11-15T00:51:24;2.00;;;1.27;;
11453;SDS011;5783;55.174;61.310;2022-11-15T00:53:53;1.47;;;1.37;;
11453;SDS011;5783;55.174;61.310;2022-11-15T00:56:22;1.40;;;1.30;;
11453;SDS011;5783;55.174;61.310;2022-11-15T00:58:52;1.50;;;1.40;;
11453;SDS011;5783;55.174;61.310;2022-11-15T01:01:21;1.57;;;1.40;;
11453;SDS011;5783;55.174;61.310;2022-11-15T01:03:51;1.33;;;1.23;;
11453;SDS011;5783;55.174;61.310;2022-11-15T01:06:20;1.67;;;1.57;;
11453;SDS011;5783;55.174;61.310;2022-11-15T01:08:49;1.67;;;1.40;;
11453;SDS011;5783;55.174;61.310;2022-11-15T01:11:18;1.40;;;1.30;;
11453;SDS011;5783;55.174;61.310;2022-11-15T01:13:47;1.30;;;1.20;;
11453;SDS011;5783;55.174;61.310;2022-11-15T01:16:16;1.77;;;1.30;;
11453;SDS011;5783;55.174;61.310;2022-11-15T01:18:46;1.53;;;1.30;;
11453;SDS011;5783;55.174;61.310;2022-11-15T01:21:17;2.67;;;1.43;;
11453;SDS011;5783;55.174;61.310;2022-11-15T01:23:47;1.27;;;1.13;;
11453;SDS011;5783;55.174;61.310;2022-11-15T01:26:18;1.63;;;1.30;;
11453;SDS011;5783;55.174;61.310;2022-11-15T01:28:47;2.03;;;1.50;;
11453;SDS011;5783;55.174;61.310;2022-11-15T01:31:17;1.60;;;1.27;;
11453;SDS011;5783;55.174;61.310;2022-11-15T01:33:48;1.50;;;1.40;;
11453;SDS011;5783;55.174;61.310;2022-11-15T01:36:18;2.00;;;1.43;;
11453;SDS011;5783;55.174;61.310;2022-11-15T01:41:38;1.50;;;1.40;;
11453;SDS011;5783;55.174;61.310;2022-11-15T01:47:16;1.40;;;1.30;;
11453;SDS011;5783;55.174;61.310;2022-11-15T01:52:38;1.27;;;1.17;;
11453;SDS011;5783;55.174;61.310;2022-11-15T01:57:59;1.30;;;1.20;;
11453;SDS011;5783;55.174;61.310;2022-11-15T02:00:31;1.43;;;1.33;;
11453;SDS011;5783;55.174;61.310;2022-11-15T02:03:02;1.23;;;1.13;;
11453;SDS011;5783;55.174;61.310;2022-11-15T02:05:31;1.37;;;1.27;;
11453;SDS011;5783;55.174;61.310;2022-11-15T02:08:03;1.73;;;1.50;;
11453;SDS011;5783;55.174;61.310;2022-11-15T02:10:33;1.50;;;1.40;;
11453;SDS011;5783;55.174;61.310;2022-11-15T02:13:02;1.40;;;1.30;;
11453;SDS011;5783;55.174;61.310;2022-11-15T02:15:34;1.87;;;1.43;;
11453;SDS011;5783;55.174;61.310;2022-11-15T02:20:57;2.07;;;1.60;;
11453;SDS011;5783;55.174;61.310;2022-11-15T02:36:01;2.00;;;1.80;;
11453;SDS011;5783;55.174;61.310;2022-11-15T02:45:09;1.40;;;1.30;;
11453;SDS011;5783;55.174;61.310;2022-11-15T02:47:43;1.70;;;1.60;;
11453;SDS011;5783;55.174;61.310;2022-11-15T02:50:12;1.33;;;1.23;;
11453;SDS011;5783;55.174;61.310;2022-11-15T03:04:42;1.33;;;1.23;;
11453;SDS011;5783;55.174;61.310;2022-11-15T03:07:44;1.43;;;1.33;;
11453;SDS011;5783;55.174;61.310;2022-11-15T03:18:52;1.63;;;1.50;;
11453;SDS011;5783;55.174;61.310;2022-11-15T03:21:22;1.40;;;1.30;;
11453;SDS011;5783;55.174;61.310;2022-11-15T03:23:52;1.70;;;1.60;;
11453;SDS011;5783;55.174;61.310;2022-11-15T03:26:24;1.87;;;1.60;;
11453;SDS011;5783;55.174;61.310;2022-11-15T03:31:45;1.70;;;1.60;;
11453;SDS011;5783;55.174;61.310;2022-11-15T03:37:30;1.47;;;1.37;;
11453;SDS011;5783;55.174;61.310;2022-11-15T03:40:16;1.40;;;1.30;;
11453;SDS011;5783;55.174;61.310;2022-11-15T03:48:48;1.40;;;1.27;;
11453;SDS011;5783;55.174;61.310;2022-11-15T03:51:36;1.50;;;1.30;;
11453;SDS011;5783;55.174;61.310;2022-11-15T03:54:05;1.60;;;1.50;;
11453;SDS011;5783;55.174;61.310;2022-11-15T03:56:35;1.60;;;1.50;;
11453;SDS011;5783;55.174;61.310;2022-11-15T03:59:04;2.20;;;1.37;;
11453;SDS011;5783;55.174;61.310;2022-11-15T04:01:33;1.70;;;1.20;;
11453;SDS011;5783;55.174;61.310;2022-11-15T04:04:02;1.40;;;1.30;;
11453;SDS011;5783;55.174;61.310;2022-11-15T04:06:31;1.70;;;1.60;;
11453;SDS011;5783;55.174;61.310;2022-11-15T04:09:00;1.40;;;1.30;;
11453;SDS011;5783;55.174;61.310;2022-11-15T04:11:29;3.40;;;1.43;;
11453;SDS011;5783;55.174;61.310;2022-11-15T04:13:59;2.50;;;1.40;;
11453;SDS011;5783;55.174;61.310;2022-11-15T04:16:28;1.63;;;1.53;;
11453;SDS011;5783;55.174;61.310;2022-11-15T04:18:57;1.30;;;1.20;;
11453;SDS011;5783;55.174;61.310;2022-11-15T04:21:45;1.93;;;1.60;;
11453;SDS011;5783;55.174;61.310;2022-11-15T04:24:34;1.50;;;1.40;;
11453;SDS011;5783;55.174;61.310;2022-11-15T04:27:03;2.73;;;1.60;;
11453;SDS011;5783;55.174;61.310;2022-11-15T04:29:32;1.50;;;1.37;;
11453;SDS011;5783;55.174;61.310;2022-11-15T04:34:51;1.60;;;1.50;;
11453;SDS011;5783;55.174;61.310;2022-11-15T04:37:19;1.90;;;1.70;;
11453;SDS011;5783;55.174;61.310;2022-11-15T04:39:48;2.07;;;1.57;;
11453;SDS011;5783;55.174;61.310;2022-11-15T04:42:17;2.00;;;1.77;;
11453;SDS011;5783;55.174;61.310;2022-11-15T04:44:46;2.63;;;1.77;;
11453;SDS011;5783;55.174;61.310;2022-11-15T04:47:15;2.00;;;1.50;;
11453;SDS011;5783;55.174;61.310;2022-11-15T04:49:44;1.80;;;1.70;;
11453;SDS011;5783;55.174;61.310;2022-11-15T04:52:14;1.67;;;1.57;;
11453;SDS011;5783;55.174;61.310;2022-11-15T04:54:43;2.07;;;1.60;;
11453;SDS011;5783;55.174;61.310;2022-11-15T04:57:12;1.70;;;1.60;;
11453;SDS011;5783;55.174;61.310;2022-11-15T04:59:42;2.10;;;1.90;;
11453;SDS011;5783;55.174;61.310;2022-11-15T05:02:11;3.67;;;2.00;;
11453;SDS011;5783;55.174;61.310;2022-11-15T05:04:41;1.90;;;1.70;;
11453;SDS011;5783;55.174;61.310;2022-11-15T05:07:09;2.57;;;2.10;;
11453;SDS011;5783;55.174;61.310;2022-11-15T05:09:38;3.10;;;2.13;;
11453;SDS011;5783;55.174;61.310;2022-11-15T05:12:07;10.63;;;2.60;;
11453;SDS011;5783;55.174;61.310;2022-11-15T05:14:36;4.00;;;2.13;;
11453;SDS011;5783;55.174;61.310;2022-11-15T05:17:05;4.87;;;2.37;;
11453;SDS011;5783;55.174;61.310;2022-11-15T05:19:34;2.00;;;1.80;;
11453;SDS011;5783;55.174;61.310;2022-11-15T05:22:04;2.93;;;2.00;;
11453;SDS011;5783;55.174;61.310;2022-11-15T05:24:33;2.47;;;1.97;;
11453;SDS011;5783;55.174;61.310;2022-11-15T05:27:02;4.20;;;1.70;;
11453;SDS011;5783;55.174;61.310;2022-11-15T05:29:31;1.70;;;1.60;;
11453;SDS011;5783;55.174;61.310;2022-11-15T05:32:00;3.47;;;1.80;;
11453;SDS011;5783;55.174;61.310;2022-11-15T05:34:32;3.23;;;1.93;;
11453;SDS011;5783;55.174;61.310;2022-11-15T05:37:02;3.10;;;2.00;;
11453;SDS011;5783;55.174;61.310;2022-11-15T05:39:31;2.63;;;1.90;;
11453;SDS011;5783;55.174;61.310;2022-11-15T05:44:49;2.77;;;1.90;;
11453;SDS011;5783;55.174;61.310;2022-11-15T05:50:08;2.30;;;1.83;;
11453;SDS011;5783;55.174;61.310;2022-11-15T05:52:40;1.80;;;1.63;;
11453;SDS011;5783;55.174;61.310;2022-11-15T05:55:10;2.80;;;1.70;;
11453;SDS011;5783;55.174;61.310;2022-11-15T05:57:41;2.87;;;1.77;;
11453;SDS011;5783;55.174;61.310;2022-11-15T06:00:10;2.60;;;1.83;;
11453;SDS011;5783;55.174;61.310;2022-11-15T06:02:40;2.03;;;1.83;;
11453;SDS011;5783;55.174;61.310;2022-11-15T06:05:09;2.10;;;1.90;;
11453;SDS011;5783;55.174;61.310;2022-11-15T06:07:38;1.87;;;1.73;;
11453;SDS011;5783;55.174;61.310;2022-11-15T06:10:08;2.70;;;1.70;;
11453;SDS011;5783;55.174;61.310;2022-11-15T06:12:37;2.00;;;1.80;;
11453;SDS011;5783;55.174;61.310;2022-11-15T06:15:07;2.47;;;1.90;;
11453;SDS011;5783;55.174;61.310;2022-11-15T06:17:36;3.33;;;2.00;;
11453;SDS011;5783;55.174;61.310;2022-11-15T06:20:06;3.43;;;2.00;;
11453;SDS011;5783;55.174;61.310;2022-11-15T06:22:35;2.43;;;2.10;;
11453;SDS011;5783;55.174;61.310;2022-11-15T06:25:04;4.43;;;1.73;;
11453;SDS011;5783;55.174;61.310;2022-11-15T06:27:33;1.90;;;1.70;;
11453;SDS011;5783;55.174;61.310;2022-11-15T06:30:03;2.57;;;1.80;;
11453;SDS011;5783;55.174;61.310;2022-11-15T06:32:32;2.17;;;1.67;;
11453;SDS011;5783;55.174;61.310;2022-11-15T06:35:02;4.03;;;2.10;;
11453;SDS011;5783;55.174;61.310;2022-11-15T06:37:31;2.30;;;1.60;;
11453;SDS011;5783;55.174;61.310;2022-11-15T06:40:02;2.67;;;1.80;;
11453;SDS011;5783;55.174;61.310;2022-11-15T06:42:31;2.20;;;2.00;;
11453;SDS011;5783;55.174;61.310;2022-11-15T06:45:01;2.03;;;1.80;;
11453;SDS011;5783;55.174;61.310;2022-11-15T06:47:31;3.27;;;2.30;;
11453;SDS011;5783;55.174;61.310;2022-11-15T06:50:00;2.83;;;1.90;;
11453;SDS011;5783;55.174;61.310;2022-11-15T06:52:31;4.87;;;2.07;;
11453;SDS011;5783;55.174;61.310;2022-11-15T06:55:01;4.23;;;2.03;;
11453;SDS011;5783;55.174;61.310;2022-11-15T06:57:30;5.10;;;2.07;;
11453;SDS011;5783;55.174;61.310;2022-11-15T06:59:59;5.27;;;2.10;;
11453;SDS011;5783;55.174;61.310;2022-11-15T07:02:30;5.70;;;2.03;;
11453;SDS011;5783;55.174;61.310;2022-11-15T07:04:59;9.07;;;2.50;;
11453;SDS011;5783;55.174;61.310;2022-11-15T07:07:30;11.90;;;2.80;;
11453;SDS011;5783;55.174;61.310;2022-11-15T07:09:59;11.30;;;2.87;;
11453;SDS011;5783;55.174;61.310;2022-11-15T07:12:30;8.13;;;2.20;;
11453;SDS011;5783;55.174;61.310;2022-11-15T07:14:59;6.13;;;2.10;;
11453;SDS011;5783;55.174;61.310;2022-11-15T07:17:30;4.37;;;2.10;;
11453;SDS011;5783;55.174;61.310;2022-11-15T07:19:59;3.33;;;1.87;;
11453;SDS011;5783;55.174;61.310;2022-11-15T07:22:30;4.87;;;2.33;;
11453;SDS011;5783;55.174;61.310;2022-11-15T07:24:59;3.70;;;2.10;;
11453;SDS011;5783;55.174;61.310;2022-11-15T07:27:30;4.13;;;2.00;;
11453;SDS011;5783;55.174;61.310;2022-11-15T07:29:59;2.53;;;1.90;;
11453;SDS011;5783;55.174;61.310;2022-11-15T07:32:29;3.97;;;2.20;;
11453;SDS011;5783;55.174;61.310;2022-11-15T07:34:58;3.73;;;2.00;;
11453;SDS011;5783;55.174;61.310;2022-11-15T07:37:28;4.97;;;1.90;;
11453;SDS011;5783;55.174;61.310;2022-11-15T07:39:57;2.93;;;2.00;;
11453;SDS011;5783;55.174;61.310;2022-11-15T07:42:26;3.17;;;1.83;;
11453;SDS011;5783;55.174;61.310;2022-11-15T07:45:14;3.13;;;1.97;;
11453;SDS011;5783;55.174;61.310;2022-11-15T07:50:33;5.20;;;2.00;;
11453;SDS011;5783;55.174;61.310;2022-11-15T07:53:02;10.47;;;2.73;;
11453;SDS011;5783;55.174;61.310;2022-11-15T07:55:31;5.00;;;2.23;;
11453;SDS011;5783;55.174;61.310;2022-11-15T07:58:02;2.77;;;1.87;;
11453;SDS011;5783;55.174;61.310;2022-11-15T08:00:33;4.10;;;1.97;;
11453;SDS011;5783;55.174;61.310;2022-11-15T08:03:04;3.83;;;2.30;;
11453;SDS011;5783;55.174;61.310;2022-11-15T08:05:36;2.70;;;2.10;;
11453;SDS011;5783;55.174;61.310;2022-11-15T08:08:07;2.43;;;1.80;;
11453;SDS011;5783;55.174;61.310;2022-11-15T08:10:38;3.37;;;2.03;;
11453;SDS011;5783;55.174;61.310;2022-11-15T08:13:08;3.20;;;2.27;;
11453;SDS011;5783;55.174;61.310;2022-11-15T08:15:38;5.10;;;2.30;;
11453;SDS011;5783;55.174;61.310;2022-11-15T08:18:10;2.90;;;2.17;;
11453;SDS011;5783;55.174;61.310;2022-11-15T08:20:41;2.93;;;2.40;;
11453;SDS011;5783;55.174;61.310;2022-11-15T08:23:11;4.03;;;2.20;;
11453;SDS011;5783;55.174;61.310;2022-11-15T08:25:40;3.87;;;2.27;;
11453;SDS011;5783;55.174;61.310;2022-11-15T08:28:09;5.13;;;2.53;;
11453;SDS011;5783;55.174;61.310;2022-11-15T08:30:40;3.57;;;2.23;;
11453;SDS011;5783;55.174;61.310;2022-11-15T08:33:12;2.93;;;2.30;;
11453;SDS011;5783;55.174;61.310;2022-11-15T08:35:42;2.77;;;2.03;;
11453;SDS011;5783;55.174;61.310;2022-11-15T08:38:12;3.40;;;2.17;;
11453;SDS011;5783;55.174;61.310;2022-11-15T08:40:41;3.43;;;2.33;;
11453;SDS011;5783;55.174;61.310;2022-11-15T08:43:10;3.03;;;2.30;;
11453;SDS011;5783;55.174;61.310;2022-11-15T08:45:39;5.17;;;2.40;;
11453;SDS011;5783;55.174;61.310;2022-11-15T08:48:09;3.13;;;2.30;;
11453;SDS011;5783;55.174;61.310;2022-11-15T08:50:38;2.80;;;2.17;;
11453;SDS011;5783;55.174;61.310;2022-11-15T08:53:09;2.67;;;2.13;;
11453;SDS011;5783;55.174;61.310;2022-11-15T08:55:39;3.43;;;2.53;;
11453;SDS011;5783;55.174;61.310;2022-11-15T08:58:08;2.83;;;2.10;;
11453;SDS011;5783;55.174;61.310;2022-11-15T09:00:38;3.47;;;2.30;;
11453;SDS011;5783;55.174;61.310;2022-11-15T09:03:07;3.80;;;2.47;;
11453;SDS011;5783;55.174;61.310;2022-11-15T09:05:36;3.97;;;2.40;;
11453;SDS011;5783;55.174;61.310;2022-11-15T09:08:06;2.70;;;2.13;;
11453;SDS011;5783;55.174;61.310;2022-11-15T09:10:37;3.57;;;2.47;;
11453;SDS011;5783;55.174;61.310;2022-11-15T09:13:06;4.63;;;2.37;;
11453;SDS011;5783;55.174;61.310;2022-11-15T09:15:35;2.60;;;2.40;;
11453;SDS011;5783;55.174;61.310;2022-11-15T09:18:04;3.33;;;2.47;;
11453;SDS011;5783;55.174;61.310;2022-11-15T09:20:34;3.60;;;2.40;;
11453;SDS011;5783;55.174;61.310;2022-11-15T09:23:23;3.60;;;2.20;;
11453;SDS011;5783;55.174;61.310;2022-11-15T09:25:57;4.53;;;2.60;;
11453;SDS011;5783;55.174;61.310;2022-11-15T09:28:43;3.97;;;2.30;;
11453;SDS011;5783;55.174;61.310;2022-11-15T09:31:12;7.00;;;2.50;;
11453;SDS011;5783;55.174;61.310;2022-11-15T09:36:30;3.50;;;2.33;;
11453;SDS011;5783;55.174;61.310;2022-11-15T09:38:59;3.13;;;2.20;;
11453;SDS011;5783;55.174;61.310;2022-11-15T09:50:53;4.57;;;2.40;;
11453;SDS011;5783;55.174;61.310;2022-11-15T10:05:23;3.93;;;2.80;;
11453;SDS011;5783;55.174;61.310;2022-11-15T10:10:46;3.73;;;2.50;;
11453;SDS011;5783;55.174;61.310;2022-11-15T10:24:40;3.60;;;2.60;;
11453;SDS011;5783;55.174;61.310;2022-11-15T10:27:11;4.40;;;2.60;;
11453;SDS011;5783;55.174;61.310;2022-11-15T10:30:01;5.03;;;2.50;;
11453;SDS011;5783;55.174;61.310;2022-11-15T10:32:32;4.20;;;2.43;;
11453;SDS011;5783;55.174;61.310;2022-11-15T10:35:15;4.37;;;2.60;;
11453;SDS011;5783;55.174;61.310;2022-11-15T10:40:42;5.17;;;2.90;;
11453;SDS011;5783;55.174;61.310;2022-11-15T10:46:00;6.90;;;2.90;;
11453;SDS011;5783;55.174;61.310;2022-11-15T10:48:32;3.97;;;2.67;;
11453;SDS011;5783;55.174;61.310;2022-11-15T10:51:02;3.87;;;2.70;;
11453;SDS011;5783;55.174;61.310;2022-11-15T10:56:07;4.10;;;2.97;;
11453;SDS011;5783;55.174;61.310;2022-11-15T10:58:39;3.33;;;2.43;;
11453;SDS011;5783;55.174;61.310;2022-11-15T11:01:12;6.03;;;2.60;;
11453;SDS011;5783;55.174;61.310;2022-11-15T11:03:44;4.20;;;2.80;;
11453;SDS011;5783;55.174;61.310;2022-11-15T11:06:16;3.80;;;2.57;;
11453;SDS011;5783;55.174;61.310;2022-11-15T11:14:27;5.07;;;2.70;;
11453;SDS011;5783;55.174;61.310;2022-11-15T11:20:27;4.27;;;2.73;;
11453;SDS011;5783;55.174;61.310;2022-11-15T11:31:53;4.83;;;2.83;;
11453;SDS011;5783;55.174;61.310;2022-11-15T11:49:46;3.77;;;2.80;;
11453;SDS011;5783;55.174;61.310;2022-11-15T11:53:12;4.37;;;2.67;;
11453;SDS011;5783;55.174;61.310;2022-11-15T11:58:16;4.87;;;3.10;;
11453;SDS011;5783;55.174;61.310;2022-11-15T12:19:03;4.23;;;2.97;;
11453;SDS011;5783;55.174;61.310;2022-11-15T12:38:49;3.13;;;2.53;;
11453;SDS011;5783;55.174;61.310;2022-11-15T12:43:57;3.87;;;2.70;;
11453;SDS011;5783;55.174;61.310;2022-11-15T12:52:08;3.77;;;2.33;;
11453;SDS011;5783;55.174;61.310;2022-11-15T13:05:57;4.30;;;2.60;;
11453;SDS011;5783;55.174;61.310;2022-11-15T13:28:41;3.43;;;2.63;;
11453;SDS011;5783;55.174;61.310;2022-11-15T13:36:54;4.27;;;2.63;;
11453;SDS011;5783;55.174;61.310;2022-11-15T13:45:02;3.37;;;2.53;;
11453;SDS011;5783;55.174;61.310;2022-11-15T13:47:32;4.87;;;2.77;;
11453;SDS011;5783;55.174;61.310;2022-11-15T13:50:01;4.57;;;2.47;;
11453;SDS011;5783;55.174;61.310;2022-11-15T13:52:32;3.43;;;2.50;;
11453;SDS011;5783;55.174;61.310;2022-11-15T13:57:55;3.50;;;2.50;;
11453;SDS011;5783;55.174;61.310;2022-11-15T14:06:08;3.63;;;2.80;;
11453;SDS011;5783;55.174;61.310;2022-11-15T14:11:49;4.70;;;3.00;;
11453;SDS011;5783;55.174;61.310;2022-11-15T14:14:21;4.00;;;2.80;;
11453;SDS011;5783;55.174;61.310;2022-11-15T14:16:52;3.17;;;2.70;;
11453;SDS011;5783;55.174;61.310;2022-11-15T14:30:46;4.00;;;2.60;;
11453;SDS011;5783;55.174;61.310;2022-11-15T14:38:54;3.80;;;2.63;;
11453;SDS011;5783;55.174;61.310;2022-11-15T14:41:24;3.33;;;2.57;;
11453;SDS011;5783;55.174;61.310;2022-11-15T14:43:56;3.00;;;2.47;;
11453;SDS011;5783;55.174;61.310;2022-11-15T14:46:25;4.63;;;2.60;;
11453;SDS011;5783;55.174;61.310;2022-11-15T14:48:54;3.50;;;2.50;;
11453;SDS011;5783;55.174;61.310;2022-11-15T14:51:23;4.17;;;2.30;;
11453;SDS011;5783;55.174;61.310;2022-11-15T14:53:53;3.30;;;2.77;;
11453;SDS011;5783;55.174;61.310;2022-11-15T14:56:22;3.73;;;2.70;;
11453;SDS011;5783;55.174;61.310;2022-11-15T14:58:51;3.90;;;2.70;;
11453;SDS011;5783;55.174;61.310;2022-11-15T15:04:10;3.83;;;2.50;;
11453;SDS011;5783;55.174;61.310;2022-11-15T15:06:41;3.20;;;2.60;;
11453;SDS011;5783;55.174;61.310;2022-11-15T15:09:10;2.80;;;2.40;;
11453;SDS011;5783;55.174;61.310;2022-11-15T15:11:39;3.33;;;2.60;;
11453;SDS011;5783;55.174;61.310;2022-11-15T15:14:08;3.83;;;2.33;;
11453;SDS011;5783;55.174;61.310;2022-11-15T15:16:38;3.33;;;2.13;;
11453;SDS011;5783;55.174;61.310;2022-11-15T15:19:07;5.30;;;2.70;;
11453;SDS011;5783;55.174;61.310;2022-11-15T15:21:36;3.30;;;2.37;;
11453;SDS011;5783;55.174;61.310;2022-11-15T15:24:07;3.17;;;2.30;;
11453;SDS011;5783;55.174;61.310;2022-11-15T15:26:38;3.13;;;2.33;;
11453;SDS011;5783;55.174;61.310;2022-11-15T15:29:09;4.47;;;2.50;;
11453;SDS011;5783;55.174;61.310;2022-11-15T15:31:38;2.87;;;2.27;;
11453;SDS011;5783;55.174;61.310;2022-11-15T15:34:07;3.43;;;2.13;;
11453;SDS011;5783;55.174;61.310;2022-11-15T15:36:36;3.70;;;2.20;;
11453;SDS011;5783;55.174;61.310;2022-11-15T15:39:08;4.60;;;2.40;;
11453;SDS011;5783;55.174;61.310;2022-11-15T15:41:38;3.40;;;2.40;;
11453;SDS011;5783;55.174;61.310;2022-11-15T15:44:07;2.60;;;2.20;;
11453;SDS011;5783;55.174;61.310;2022-11-15T15:46:36;3.77;;;2.23;;
11453;SDS011;5783;55.174;61.310;2022-11-15T15:49:07;3.53;;;2.53;;
11453;SDS011;5783;55.174;61.310;2022-11-15T15:51:37;2.93;;;2.30;;
11453;SDS011;5783;55.174;61.310;2022-11-15T15:54:07;5.23;;;2.47;;
11453;SDS011;5783;55.174;61.310;2022-11-15T15:56:38;3.33;;;2.50;;
11453;SDS011;5783;55.174;61.310;2022-11-15T15:59:07;2.67;;;2.20;;
11453;SDS011;5783;55.174;61.310;2022-11-15T16:01:36;3.17;;;2.33;;
11453;SDS011;5783;55.174;61.310;2022-11-15T16:04:05;2.93;;;2.37;;
11453;SDS011;5783;55.174;61.310;2022-11-15T16:06:36;2.67;;;2.20;;
11453;SDS011;5783;55.174;61.310;2022-11-15T16:09:09;3.27;;;2.30;;
11453;SDS011;5783;55.174;61.310;2022-11-15T16:11:41;2.83;;;2.27;;
11453;SDS011;5783;55.174;61.310;2022-11-15T16:14:12;2.93;;;2.50;;
11453;SDS011;5783;55.174;61.310;2022-11-15T16:16:41;4.07;;;2.40;;
11453;SDS011;5783;55.174;61.310;2022-11-15T16:19:10;2.73;;;2.37;;
11453;SDS011;5783;55.174;61.310;2022-11-15T16:21:40;2.93;;;2.27;;
11453;SDS011;5783;55.174;61.310;2022-11-15T16:24:09;2.70;;;2.40;;
11453;SDS011;5783;55.174;61.310;2022-11-15T16:26:38;3.10;;;2.33;;
11453;SDS011;5783;55.174;61.310;2022-11-15T16:29:08;3.20;;;2.20;;
11453;SDS011;5783;55.174;61.310;2022-11-15T16:31:38;3.00;;;2.50;;
11453;SDS011;5783;55.174;61.310;2022-11-15T16:34:07;2.50;;;2.20;;
11453;SDS011;5783;55.174;61.310;2022-11-15T16:36:36;2.77;;;2.30;;
11453;SDS011;5783;55.174;61.310;2022-11-15T16:39:05;2.60;;;2.20;;
11453;SDS011;5783;55.174;61.310;2022-11-15T16:41:36;3.27;;;2.23;;
11453;SDS011;5783;55.174;61.310;2022-11-15T16:44:05;2.73;;;2.27;;
11453;SDS011;5783;55.174;61.310;2022-11-15T16:46:34;2.97;;;2.30;;
11453;SDS011;5783;55.174;61.310;2022-11-15T16:49:03;2.50;;;2.20;;
11453;SDS011;5783;55.174;61.310;2022-11-15T16:51:33;3.00;;;2.10;;
11453;SDS011;5783;55.174;61.310;2022-11-15T16:54:02;2.90;;;2.10;;
11453;SDS011;5783;55.174;61.310;2022-11-15T16:56:32;3.00;;;2.30;;
11453;SDS011;5783;55.174;61.310;2022-11-15T16:59:01;3.40;;;2.23;;
11453;SDS011;5783;55.174;61.310;2022-11-15T17:04:05;2.30;;;2.10;;
11453;SDS011;5783;55.174;61.310;2022-11-15T17:06:53;3.00;;;2.30;;
11453;SDS011;5783;55.174;61.310;2022-11-15T17:09:22;3.47;;;2.40;;
11453;SDS011;5783;55.174;61.310;2022-11-15T17:11:51;3.17;;;2.20;;
11453;SDS011;5783;55.174;61.310;2022-11-15T17:14:21;2.70;;;2.30;;
11453;SDS011;5783;55.174;61.310;2022-11-15T17:16:50;3.00;;;2.60;;
11453;SDS011;5783;55.174;61.310;2022-11-15T17:19:20;2.80;;;2.13;;
11453;SDS011;5783;55.174;61.310;2022-11-15T17:21:49;2.30;;;2.10;;
11453;SDS011;5783;55.174;61.310;2022-11-15T17:24:19;2.67;;;2.10;;
11453;SDS011;5783;55.174;61.310;2022-11-15T17:26:48;3.00;;;2.50;;
11453;SDS011;5783;55.174;61.310;2022-11-15T17:29:17;3.60;;;2.23;;
11453;SDS011;5783;55.174;61.310;2022-11-15T17:31:46;3.10;;;2.20;;
11453;SDS011;5783;55.174;61.310;2022-11-15T17:34:15;3.43;;;2.20;;
11453;SDS011;5783;55.174;61.310;2022-11-15T17:36:47;2.70;;;2.40;;
11453;SDS011;5783;55.174;61.310;2022-11-15T17:39:16;2.77;;;2.30;;
11453;SDS011;5783;55.174;61.310;2022-11-15T17:41:46;3.07;;;2.07;;
11453;SDS011;5783;55.174;61.310;2022-11-15T17:44:15;3.97;;;2.73;;
11453;SDS011;5783;55.174;61.310;2022-11-15T17:46:44;3.33;;;2.20;;
11453;SDS011;5783;55.174;61.310;2022-11-15T17:49:13;3.00;;;2.20;;
11453;SDS011;5783;55.174;61.310;2022-11-15T17:51:43;2.10;;;1.90;;
11453;SDS011;5783;55.174;61.310;2022-11-15T17:54:12;3.50;;;2.30;;
11453;SDS011;5783;55.174;61.310;2022-11-15T17:56:41;2.70;;;2.40;;
11453;SDS011;5783;55.174;61.310;2022-11-15T17:59:10;3.10;;;2.27;;
11453;SDS011;5783;55.174;61.310;2022-11-15T18:01:39;3.20;;;2.50;;
11453;SDS011;5783;55.174;61.310;2022-11-15T18:04:08;3.40;;;2.63;;
11453;SDS011;5783;55.174;61.310;2022-11-15T18:06:39;2.57;;;2.20;;
11453;SDS011;5783;55.174;61.310;2022-11-15T18:09:08;3.73;;;2.23;;
11453;SDS011;5783;55.174;61.310;2022-11-15T18:11:38;2.60;;;2.30;;
11453;SDS011;5783;55.174;61.310;2022-11-15T18:17:00;2.43;;;2.10;;
11453;SDS011;5783;55.174;61.310;2022-11-15T18:19:29;2.90;;;2.23;;
11453;SDS011;5783;55.174;61.310;2022-11-15T18:21:58;4.10;;;2.20;;
11453;SDS011;5783;55.174;61.310;2022-11-15T18:27:03;3.40;;;2.10;;
11453;SDS011;5783;55.174;61.310;2022-11-15T18:29:33;3.20;;;2.20;;
11453;SDS011;5783;55.174;61.310;2022-11-15T18:32:03;2.50;;;1.90;;
11453;SDS011;5783;55.174;61.310;2022-11-15T18:34:34;2.30;;;2.10;;
11453;SDS011;5783;55.174;61.310;2022-11-15T18:37:03;2.63;;;2.27;;
11453;SDS011;5783;55.174;61.310;2022-11-15T18:39:33;3.03;;;2.10;;
11453;SDS011;5783;55.174;61.310;2022-11-15T18:42:02;3.43;;;2.07;;
11453;SDS011;5783;55.174;61.310;2022-11-15T18:44:31;2.80;;;2.27;;
11453;SDS011;5783;55.174;61.310;2022-11-15T18:47:01;2.70;;;2.00;;
11453;SDS011;5783;55.174;61.310;2022-11-15T18:49:30;2.20;;;1.80;;
11453;SDS011;5783;55.174;61.310;2022-11-15T18:51:59;2.27;;;1.97;;
11453;SDS011;5783;55.174;61.310;2022-11-15T18:54:28;2.30;;;2.10;;
11453;SDS011;5783;55.174;61.310;2022-11-15T18:56:58;3.10;;;2.37;;
11453;SDS011;5783;55.174;61.310;2022-11-15T18:59:27;2.60;;;2.20;;
11453;SDS011;5783;55.174;61.310;2022-11-15T19:01:57;3.80;;;2.10;;
11453;SDS011;5783;55.174;61.310;2022-11-15T19:04:26;2.80;;;2.30;;
11453;SDS011;5783;55.174;61.310;2022-11-15T19:06:55;2.50;;;2.30;;
11453;SDS011;5783;55.174;61.310;2022-11-15T19:09:24;3.13;;;2.10;;
11453;SDS011;5783;55.174;61.310;2022-11-15T19:11:55;2.63;;;2.10;;
11453;SDS011;5783;55.174;61.310;2022-11-15T19:14:24;2.30;;;1.90;;
11453;SDS011;5783;55.174;61.310;2022-11-15T19:16:54;3.23;;;2.40;;
11453;SDS011;5783;55.174;61.310;2022-11-15T19:19:24;2.83;;;1.93;;
11453;SDS011;5783;55.174;61.310;2022-11-15T19:21:54;2.47;;;2.10;;
11453;SDS011;5783;55.174;61.310;2022-11-15T19:24:23;2.60;;;2.03;;
11453;SDS011;5783;55.174;61.310;2022-11-15T19:26:55;2.87;;;2.20;;
11453;SDS011;5783;55.174;61.310;2022-11-15T19:29:24;2.77;;;2.40;;
11453;SDS011;5783;55.174;61.310;2022-11-15T19:31:53;2.63;;;2.00;;
11453;SDS011;5783;55.174;61.310;2022-11-15T19:34:22;3.60;;;2.57;;
11453;SDS011;5783;55.174;61.310;2022-11-15T19:36:51;2.50;;;2.20;;
11453;SDS011;5783;55.174;61.310;2022-11-15T19:39:20;3.33;;;2.20;;
11453;SDS011;5783;55.174;61.310;2022-11-15T19:41:49;3.17;;;2.10;;
11453;SDS011;5783;55.174;61.310;2022-11-15T19:44:18;2.40;;;2.20;;
11453;SDS011;5783;55.174;61.310;2022-11-15T19:46:47;3.57;;;2.43;;
11453;SDS011;5783;55.174;61.310;2022-11-15T19:49:16;3.57;;;2.20;;
11453;SDS011;5783;55.174;61.310;2022-11-15T19:51:47;2.57;;;2.27;;
11453;SDS011;5783;55.174;61.310;2022-11-15T19:54:16;2.80;;;2.20;;